createdAt,value
2022-12-09T00:02:08.445Z,20.97
2022-12-09T00:07:11.294Z,21.90
2022-12-09T00:12:14.209Z,26.48
2022-12-09T00:17:16.998Z,18.00
2022-12-09T00:22:20.017Z,19.92
2022-12-09T00:27:23.080Z,27.33
2022-12-09T00:32:26.096Z,30.95
2022-12-09T00:37:29.731Z,35.83
2022-12-09T00:42:34.459Z,25.20
2022-12-09T00:47:37.395Z,25.23
2022-12-09T00:52:40.211Z,21.93
2022-12-09T00:57:43.190Z,37.58
2022-12-09T01:02:45.993Z,80.95
2022-12-09T01:07:49.120Z,57.60
2022-12-09T01:12:51.765Z,67.00
2022-12-09T01:17:54.712Z,72.73
2022-12-09T01:22:57.355Z,57.80
2022-12-09T01:28:01.633Z,48.30
2022-12-09T01:33:04.556Z,66.57
2022-12-09T01:38:07.957Z,63.15
2022-12-09T01:43:18.554Z,56.73
2022-12-09T01:48:25.048Z,56.28
2022-12-09T01:53:34.548Z,56.85
2022-12-09T01:58:37.371Z,38.40
2022-12-09T02:03:40.327Z,53.42
2022-12-09T02:08:44.895Z,44.37
2022-12-09T02:14:14.263Z,40.78
2022-12-09T02:20:02.118Z,45.17
2022-12-09T02:25:11.629Z,44.47
2022-12-09T02:30:24.020Z,44.75
2022-12-09T02:35:48.767Z,31.43
2022-12-09T02:40:54.886Z,32.50
2022-12-09T02:46:00.382Z,37.97
2022-12-09T02:51:08.952Z,33.10
2022-12-09T02:56:15.060Z,37.72
2022-12-09T03:02:16.848Z,39.80
2022-12-09T03:07:19.997Z,38.40
2022-12-09T03:12:25.191Z,31.88
2022-12-09T03:17:34.048Z,30.77
2022-12-09T03:22:40.597Z,33.80
2022-12-09T03:28:06.175Z,31.20
2022-12-09T03:33:10.377Z,33.63
2022-12-09T03:38:17.433Z,35.50
2022-12-09T03:43:26.101Z,32.25
2022-12-09T03:48:29.121Z,23.88
2022-12-09T03:53:48.659Z,32.10
2022-12-09T03:58:54.684Z,34.60
2022-12-09T04:03:58.313Z,35.47
2022-12-09T04:09:02.795Z,34.60
2022-12-09T04:14:10.423Z,27.92
2022-12-09T04:19:16.735Z,24.60
2022-12-09T04:24:19.560Z,32.58
2022-12-09T04:29:22.408Z,29.67
2022-12-09T04:34:25.274Z,28.10
2022-12-09T04:39:28.276Z,31.70
2022-12-09T04:44:31.060Z,24.20
2022-12-09T04:49:33.793Z,32.10
2022-12-09T04:54:36.682Z,32.50
2022-12-09T04:59:39.550Z,32.20
2022-12-09T05:04:47.600Z,32.50
2022-12-09T05:09:50.886Z,23.60
2022-12-09T05:14:54.120Z,32.80
2022-12-09T05:19:56.907Z,32.58
2022-12-09T05:24:59.932Z,24.05
2022-12-09T05:30:02.787Z,28.05
2022-12-09T05:35:06.381Z,27.30
2022-12-09T05:40:10.103Z,30.83
2022-12-09T05:45:13.248Z,27.77
2022-12-09T05:50:16.495Z,23.40
2022-12-09T05:55:19.698Z,20.27
2022-12-09T06:00:22.767Z,24.60
2022-12-09T06:05:25.669Z,34.15
2022-12-09T06:10:28.788Z,21.92
2022-12-09T06:15:33.672Z,26.58
2022-12-09T06:20:41.717Z,27.95
2022-12-09T06:25:46.458Z,23.30
2022-12-09T06:30:49.531Z,23.60
2022-12-09T06:35:52.731Z,26.80
2022-12-09T06:40:56.469Z,35.42
2022-12-09T06:45:59.469Z,35.30
2022-12-09T06:51:02.561Z,34.67
2022-12-09T06:56:11.785Z,40.17
2022-12-09T07:01:24.787Z,31.95
2022-12-09T07:06:39.557Z,32.05
2022-12-09T07:11:43.897Z,30.75
2022-12-09T07:16:47.329Z,33.60
2022-12-09T07:21:51.539Z,36.10
2022-12-09T07:26:54.516Z,20.50
2022-12-09T07:31:57.837Z,36.08
2022-12-09T07:37:01.212Z,28.63
2022-12-09T07:42:04.544Z,37.87
2022-12-09T07:47:19.912Z,37.20
2022-12-09T07:52:23.547Z,39.05
2022-12-09T07:57:26.743Z,45.78
2022-12-09T08:02:29.669Z,52.55
2022-12-09T08:07:37.334Z,47.03
2022-12-09T08:12:43.735Z,47.67
2022-12-09T08:17:47.234Z,43.88
2022-12-09T08:22:50.615Z,46.60
2022-12-09T08:27:53.623Z,46.00
2022-12-09T08:32:57.166Z,45.67
2022-12-09T08:38:00.273Z,78.93
2022-12-09T08:43:10.222Z,53.90
2022-12-09T08:48:13.523Z,72.90
2022-12-09T08:53:16.643Z,70.05
2022-12-09T08:58:19.388Z,57.53
2022-12-09T09:03:22.604Z,48.67
2022-12-09T09:08:25.968Z,46.20
2022-12-09T09:13:29.288Z,36.00
2022-12-09T09:18:32.520Z,41.30
2022-12-09T09:23:36.059Z,39.60
2022-12-09T09:28:39.981Z,36.58
2022-12-09T09:33:43.602Z,37.95
2022-12-09T09:38:48.420Z,32.05
2022-12-09T09:43:54.530Z,39.90
2022-12-09T09:48:59.151Z,35.53
2022-12-09T09:54:08.179Z,35.33
2022-12-09T09:59:21.295Z,35.95
2022-12-09T10:04:56.537Z,31.50
2022-12-09T10:10:19.640Z,31.80
2022-12-09T10:15:34.941Z,32.50
2022-12-09T10:20:38.507Z,33.17
2022-12-09T10:25:51.142Z,30.90
2022-12-09T10:30:55.969Z,27.23
2022-12-09T10:35:59.479Z,29.75
2022-12-09T10:41:54.081Z,24.20
2022-12-09T10:47:19.394Z,19.08
2022-12-09T10:52:28.416Z,23.88
2022-12-09T10:57:31.418Z,20.95
2022-12-09T11:02:35.705Z,20.45
2022-12-09T11:07:38.657Z,21.03
2022-12-09T11:12:42.294Z,21.88
2022-12-09T11:17:58.563Z,20.70
2022-12-09T11:23:13.562Z,22.10
2022-12-09T11:28:17.273Z,19.13
2022-12-09T11:33:29.785Z,16.70
2022-12-09T11:38:48.944Z,19.52
2022-12-09T11:43:55.521Z,15.38
2022-12-09T11:49:17.265Z,22.25
2022-12-09T11:54:30.275Z,17.77
2022-12-09T11:59:40.897Z,20.53
2022-12-09T12:05:22.042Z,19.90
2022-12-09T12:10:47.266Z,17.90
2022-12-09T12:16:00.745Z,13.50
2022-12-09T12:21:18.655Z,14.82
2022-12-09T12:26:32.065Z,13.67
2022-12-09T12:31:48.999Z,19.17
2022-12-09T12:37:34.853Z,17.15
2022-12-09T12:43:11.207Z,17.08
2022-12-09T12:48:27.135Z,18.08
2022-12-09T12:53:38.714Z,17.03
2022-12-09T12:59:05.835Z,17.25
2022-12-09T13:04:22.065Z,16.33
2022-12-09T13:09:46.365Z,16.88
2022-12-09T13:14:53.382Z,20.33
2022-12-09T13:20:00.987Z,19.37
2022-12-09T13:25:40.902Z,17.70
2022-12-09T13:31:13.740Z,20.52
2022-12-09T13:36:42.498Z,21.33
2022-12-09T13:42:04.480Z,13.93
2022-12-09T13:47:15.865Z,9.07
2022-12-09T13:52:43.326Z,13.57
2022-12-09T13:58:01.436Z,13.25
2022-12-09T14:03:29.936Z,13.57
2022-12-09T14:08:45.858Z,13.98
2022-12-09T14:13:48.835Z,19.40
2022-12-09T14:18:52.789Z,19.25
2022-12-09T14:24:09.258Z,15.77
2022-12-09T14:29:12.208Z,19.23
2022-12-09T14:35:03.986Z,20.27
2022-12-09T14:40:15.970Z,20.80
2022-12-09T14:45:44.449Z,17.55
2022-12-09T14:50:47.970Z,22.65
2022-12-09T14:55:51.577Z,18.20
2022-12-09T15:01:02.920Z,19.08
2022-12-09T15:06:12.448Z,18.27
2022-12-09T15:11:35.238Z,14.75
2022-12-09T15:16:38.306Z,18.35
2022-12-09T15:21:41.258Z,19.27
2022-12-09T15:26:55.419Z,17.60
2022-12-09T15:32:00.049Z,10.93
2022-12-09T15:37:06.408Z,17.05
2022-12-09T15:42:18.317Z,18.02
2022-12-09T15:47:43.058Z,9.68
2022-12-09T15:52:53.557Z,13.52
2022-12-09T15:58:00.790Z,13.77
2022-12-09T16:03:03.977Z,17.05
2022-12-09T16:08:07.178Z,18.27
2022-12-09T16:13:15.637Z,16.80
2022-12-09T16:18:46.118Z,13.65
2022-12-09T16:23:53.987Z,19.97
2022-12-09T16:29:05.339Z,18.63
2022-12-09T16:34:20.437Z,14.32
2022-12-09T16:39:26.089Z,20.42
2022-12-09T16:44:38.890Z,9.40
2022-12-09T16:49:45.667Z,23.30
2022-12-09T16:54:50.488Z,15.65
2022-12-09T16:59:53.812Z,16.27
2022-12-09T17:04:56.739Z,22.67
2022-12-09T17:10:00.771Z,13.18
2022-12-09T17:15:04.209Z,22.63
2022-12-09T17:20:08.224Z,19.92
2022-12-09T17:25:11.281Z,11.15
2022-12-09T17:30:14.509Z,13.50
2022-12-09T17:35:17.949Z,10.90
2022-12-09T17:40:21.130Z,12.33
2022-12-09T17:45:24.160Z,17.40
2022-12-09T17:50:27.275Z,14.15
2022-12-09T17:55:30.523Z,9.48
2022-12-09T18:00:34.090Z,11.07
2022-12-09T18:05:38.642Z,12.50
2022-12-09T18:10:42.410Z,8.45
2022-12-09T18:15:48.512Z,12.85
2022-12-09T18:20:54.728Z,11.52
2022-12-09T18:25:58.655Z,13.15
2022-12-09T18:31:06.296Z,18.80
2022-12-09T18:36:18.819Z,13.50
2022-12-09T18:41:24.991Z,11.85
2022-12-09T18:46:39.444Z,15.48
2022-12-09T18:51:44.439Z,15.85
2022-12-09T18:56:47.498Z,13.07
2022-12-09T19:01:51.108Z,3.40
2022-12-09T19:06:56.680Z,12.00
2022-12-09T19:12:16.531Z,9.18
2022-12-09T19:17:23.669Z,8.25
2022-12-09T19:22:26.711Z,6.30
2022-12-09T19:27:29.659Z,16.60
2022-12-09T19:32:52.485Z,9.40
2022-12-09T19:38:01.068Z,13.55
2022-12-09T19:43:04.339Z,16.27
2022-12-09T19:48:07.381Z,12.53
2022-12-09T19:53:10.340Z,15.05
2022-12-09T19:58:13.252Z,10.75
2022-12-09T20:03:16.048Z,9.20
2022-12-09T20:08:19.053Z,14.77
2022-12-09T20:13:24.209Z,8.47
2022-12-09T20:18:30.033Z,14.93
2022-12-09T20:23:34.410Z,11.90
2022-12-09T20:28:39.039Z,14.90
2022-12-09T20:33:41.979Z,13.45
2022-12-09T20:38:49.740Z,12.97
2022-12-09T20:43:55.656Z,15.05
2022-12-09T20:48:59.640Z,13.38
2022-12-09T20:54:03.263Z,11.70
2022-12-09T20:59:07.060Z,15.32
2022-12-09T21:04:09.999Z,8.53
2022-12-09T21:09:17.859Z,12.85
2022-12-09T21:14:20.999Z,15.60
2022-12-09T21:19:26.040Z,15.68
2022-12-09T21:24:29.050Z,11.32
2022-12-09T21:29:32.602Z,9.53
2022-12-09T21:34:36.208Z,12.25
2022-12-09T21:39:39.155Z,13.45
2022-12-09T21:44:42.683Z,13.07
2022-12-09T21:49:45.494Z,13.13
2022-12-09T21:54:55.011Z,11.97
2022-12-09T21:59:58.102Z,13.38
2022-12-09T22:05:01.088Z,15.15
2022-12-09T22:10:04.015Z,13.95
2022-12-09T22:15:07.418Z,12.13
2022-12-09T22:20:54.061Z,10.40
2022-12-09T22:25:35.041Z,8.70
2022-12-09T22:30:38.061Z,9.02
2022-12-09T22:35:40.888Z,12.13
2022-12-09T22:40:43.561Z,12.52
2022-12-09T22:45:46.387Z,14.73
2022-12-09T22:50:49.232Z,15.43
2022-12-09T22:55:52.057Z,15.88
2022-12-09T23:00:55.654Z,14.38
2022-12-09T23:06:01.530Z,16.02
2022-12-09T23:11:07.272Z,16.63
2022-12-09T23:16:16.297Z,14.55
2022-12-09T23:21:24.746Z,15.90
2022-12-09T23:26:31.336Z,14.13
2022-12-09T23:31:37.096Z,13.82
2022-12-09T23:36:42.632Z,16.70
2022-12-09T23:41:46.403Z,16.90
2022-12-09T23:46:49.663Z,16.63
2022-12-09T23:51:52.519Z,15.45
2022-12-09T23:56:55.224Z,18.27
